Time;durP1;ratioP1;P1;durP2;ratioP2;P2;SDS_P1;SDS_P2;PMS_P1;PMS_P2;Temp;Humidity;BMP_temperature;BMP_pressure;BME280_temperature;BME280_humidity;BME280_pressure;Samples;Min_cycle;Max_cycle;Signal;HPM_P1;HPM_P2
2022/10/03 00:00:19;;;;;;;15.27;8.30;;;;;;;;;;5078088;28;20289;-83
2022/10/03 00:02:55;;;;;;;10.67;7.80;;;;;;;;;;5078970;28;20717;-84
2022/10/03 00:05:31;;;;;;;11.82;8.00;;;;;;;;;;5072874;28;20234;-84
2022/10/03 00:08:08;;;;;;;10.93;8.20;;;;;;;;;;5076037;28;20238;-84
2022/10/03 00:10:47;;;;;;;11.07;7.20;;;;;;;;;;5085295;28;20209;-84
2022/10/03 00:13:20;;;;;;;13.17;7.40;;;;;;;;;;5077781;28;20281;-84
2022/10/03 00:15:50;;;;;;;16.50;8.10;;;;;;;;;;5073954;28;20226;-84
2022/10/03 00:18:24;;;;;;;14.07;7.83;;;;;;;;;;5082882;28;20297;-84
2022/10/03 00:21:01;;;;;;;13.27;7.83;;;;;;;;;;5076570;28;20256;-84
2022/10/03 00:23:37;;;;;;;15.27;8.27;;;;;;;;;;5081726;28;20231;-84
2022/10/03 00:28:55;;;;;;;14.57;8.60;;;;;;;;;;5074276;28;20220;-84
2022/10/03 00:31:25;;;;;;;17.13;8.53;;;;;;;;;;5080452;28;20222;-84
2022/10/03 00:34:01;;;;;;;14.87;8.77;;;;;;;;;;5074187;28;20286;-84
2022/10/03 00:36:36;;;;;;;16.17;8.87;;;;;;;;;;5086461;28;20194;-84
2022/10/03 00:39:11;;;;;;;18.37;9.17;;;;;;;;;;5082297;28;20213;-85
2022/10/03 00:41:47;;;;;;;15.23;8.53;;;;;;;;;;5074873;28;20726;-83
2022/10/03 00:44:29;;;;;;;16.60;9.47;;;;;;;;;;5086158;28;20237;-84
2022/10/03 00:47:03;;;;;;;15.00;8.63;;;;;;;;;;5065545;28;20643;-84
2022/10/03 00:49:53;;;;;;;16.57;8.73;;;;;;;;;;5077900;28;20650;-84
2022/10/03 00:52:39;;;;;;;13.33;8.17;;;;;;;;;;5089224;28;20281;-84
2022/10/03 00:55:13;;;;;;;13.07;8.73;;;;;;;;;;5083746;28;20675;-84
2022/10/03 00:57:54;;;;;;;17.43;9.00;;;;;;;;;;5084876;28;20251;-84
2022/10/03 01:00:24;;;;;;;14.60;8.73;;;;;;;;;;5091107;28;20222;-84
2022/10/03 01:03:01;;;;;;;15.83;9.07;;;;;;;;;;5087568;28;20198;-84
2022/10/03 01:05:36;;;;;;;14.33;8.63;;;;;;;;;;5092780;28;20657;-84
2022/10/03 01:08:20;;;;;;;15.33;8.20;;;;;;;;;;5074014;28;20314;-84
2022/10/03 01:10:53;;;;;;;17.93;8.50;;;;;;;;;;5071333;28;20266;-83
2022/10/03 01:13:31;;;;;;;12.77;8.17;;;;;;;;;;5072503;28;20233;-84
2022/10/03 01:16:02;;;;;;;13.97;7.50;;;;;;;;;;5074119;28;20740;-84
2022/10/03 01:18:36;;;;;;;16.83;7.90;;;;;;;;;;5075984;28;20335;-84
2022/10/03 01:21:08;;;;;;;13.33;7.53;;;;;;;;;;5071100;28;20328;-84
2022/10/03 01:23:46;;;;;;;14.17;7.30;;;;;;;;;;5090354;28;20229;-84
2022/10/03 01:26:22;;;;;;;14.00;7.37;;;;;;;;;;5091988;28;20741;-84
2022/10/03 01:31:42;;;;;;;12.97;7.00;;;;;;;;;;5092243;28;20214;-84
2022/10/03 01:34:13;;;;;;;12.30;7.20;;;;;;;;;;5075393;28;20273;-84
2022/10/03 01:36:43;;;;;;;15.70;6.97;;;;;;;;;;5087189;28;20232;-84
2022/10/03 01:39:15;;;;;;;13.27;7.10;;;;;;;;;;5061667;28;20778;-83
2022/10/03 01:41:48;;;;;;;14.53;7.00;;;;;;;;;;5086037;28;20248;-84
2022/10/03 01:44:23;;;;;;;11.70;7.30;;;;;;;;;;5079305;28;20273;-84
2022/10/03 01:46:53;;;;;;;14.90;7.27;;;;;;;;;;5077126;28;20198;-85
2022/10/03 01:49:24;;;;;;;12.80;7.00;;;;;;;;;;5090966;28;20209;-85
2022/10/03 01:51:55;;;;;;;12.87;7.30;;;;;;;;;;5083777;28;20199;-85
2022/10/03 01:54:29;;;;;;;15.47;7.30;;;;;;;;;;5081872;28;20274;-84
2022/10/03 01:56:58;;;;;;;12.37;7.93;;;;;;;;;;5082463;28;20284;-84
2022/10/03 01:59:34;;;;;;;13.77;7.67;;;;;;;;;;5082012;28;20229;-84
2022/10/03 02:02:03;;;;;;;14.27;7.83;;;;;;;;;;5083793;28;20733;-84
2022/10/03 02:04:37;;;;;;;15.77;7.77;;;;;;;;;;5080644;28;20281;-84
2022/10/03 02:07:08;;;;;;;13.60;8.00;;;;;;;;;;5083468;28;20210;-84
2022/10/03 02:09:39;;;;;;;10.73;7.67;;;;;;;;;;5074806;28;20293;-83
2022/10/03 02:12:12;;;;;;;17.13;7.43;;;;;;;;;;5084394;28;20260;-84
2022/10/03 02:14:50;;;;;;;12.93;7.37;;;;;;;;;;5080198;28;20286;-83
2022/10/03 02:17:29;;;;;;;14.30;7.93;;;;;;;;;;5072216;28;20223;-84
2022/10/03 02:19:59;;;;;;;17.97;8.80;;;;;;;;;;5073125;28;20211;-84
2022/10/03 02:22:31;;;;;;;16.30;8.83;;;;;;;;;;5079633;28;20249;-84
2022/10/03 02:25:05;;;;;;;19.43;8.63;;;;;;;;;;5084205;28;20626;-84
2022/10/03 02:27:43;;;;;;;13.77;8.40;;;;;;;;;;5080245;28;20199;-84
2022/10/03 02:30:14;;;;;;;14.97;8.30;;;;;;;;;;5082725;28;20221;-84
2022/10/03 02:33:00;;;;;;;13.10;8.23;;;;;;;;;;5071831;28;20675;-84
2022/10/03 02:36:00;;;;;;;14.97;8.23;;;;;;;;;;5085296;28;20274;-84
2022/10/03 02:38:36;;;;;;;17.00;8.57;;;;;;;;;;5016815;28;20286;-84
2022/10/03 02:41:25;;;;;;;16.63;8.90;;;;;;;;;;5013278;28;20672;-84
2022/10/03 02:44:07;;;;;;;17.70;7.90;;;;;;;;;;5027070;28;20204;-84
2022/10/03 02:46:58;;;;;;;12.60;7.83;;;;;;;;;;5027464;28;20719;-84
2022/10/03 02:49:40;;;;;;;19.07;8.17;;;;;;;;;;4967708;28;20675;-84
2022/10/03 02:52:21;;;;;;;11.77;7.73;;;;;;;;;;4962732;28;20355;-84
2022/10/03 02:54:57;;;;;;;16.20;7.73;;;;;;;;;;4960923;28;20210;-84
2022/10/03 02:57:43;;;;;;;17.40;7.87;;;;;;;;;;4961197;28;20296;-84
2022/10/03 03:00:13;;;;;;;13.20;7.93;;;;;;;;;;4954527;28;20357;-84
2022/10/03 03:03:04;;;;;;;11.93;7.73;;;;;;;;;;4952402;28;20213;-84
2022/10/03 03:05:49;;;;;;;15.10;7.90;;;;;;;;;;4958660;28;20242;-84
2022/10/03 03:08:36;;;;;;;11.93;7.37;;;;;;;;;;4952038;28;20253;-83
2022/10/03 03:11:21;;;;;;;13.63;7.37;;;;;;;;;;4981461;28;20237;-83
2022/10/03 03:14:04;;;;;;;17.07;7.87;;;;;;;;;;4926798;29;20243;-84
2022/10/03 03:16:52;;;;;;;11.47;8.00;;;;;;;;;;4928682;29;20196;-84
2022/10/03 03:19:29;;;;;;;16.27;7.70;;;;;;;;;;4935372;29;20259;-84
2022/10/03 03:22:01;;;;;;;12.87;7.17;;;;;;;;;;4948056;29;20847;-84
2022/10/03 03:24:46;;;;;;;12.63;7.50;;;;;;;;;;4935255;29;20208;-83
2022/10/03 03:27:27;;;;;;;15.10;7.50;;;;;;;;;;4942738;28;20710;-84
2022/10/03 03:29:58;;;;;;;13.53;7.10;;;;;;;;;;4957077;28;20706;-84
2022/10/03 03:32:33;;;;;;;14.43;7.17;;;;;;;;;;4953611;28;20969;-84
2022/10/03 03:35:05;;;;;;;14.33;7.13;;;;;;;;;;4969873;28;20285;-84
2022/10/03 03:37:35;;;;;;;13.90;7.20;;;;;;;;;;4953956;28;20203;-84
2022/10/03 03:40:10;;;;;;;11.90;7.83;;;;;;;;;;4954131;28;20262;-85
2022/10/03 03:42:55;;;;;;;14.97;7.40;;;;;;;;;;4953933;28;20235;-84
2022/10/03 03:45:40;;;;;;;13.90;7.03;;;;;;;;;;4958187;28;20326;-84
2022/10/03 03:48:16;;;;;;;15.43;7.47;;;;;;;;;;4967234;28;20210;-84
2022/10/03 03:51:03;;;;;;;13.13;8.37;;;;;;;;;;5026757;28;20277;-84
2022/10/03 03:53:49;;;;;;;15.50;7.90;;;;;;;;;;5073828;28;20199;-84
2022/10/03 03:56:30;;;;;;;15.87;8.20;;;;;;;;;;5090451;28;20288;-84
2022/10/03 03:59:04;;;;;;;15.00;8.37;;;;;;;;;;5079058;28;20244;-84
2022/10/03 04:01:47;;;;;;;17.33;8.40;;;;;;;;;;5075995;28;20636;-84
2022/10/03 04:04:22;;;;;;;15.40;7.90;;;;;;;;;;5081476;28;20286;-84
2022/10/03 04:06:57;;;;;;;15.87;8.23;;;;;;;;;;5073492;28;20698;-84
2022/10/03 04:09:43;;;;;;;19.40;8.80;;;;;;;;;;5084150;28;20230;-84
2022/10/03 04:12:15;;;;;;;16.10;8.17;;;;;;;;;;5088276;28;20272;-84
2022/10/03 04:15:01;;;;;;;14.23;8.33;;;;;;;;;;5081492;28;20289;-84
2022/10/03 04:20:25;;;;;;;18.70;8.27;;;;;;;;;;5091795;28;20233;-84
2022/10/03 04:23:07;;;;;;;13.83;8.60;;;;;;;;;;5084958;28;20216;-83
2022/10/03 04:25:44;;;;;;;14.57;8.13;;;;;;;;;;5083470;28;20278;-84
2022/10/03 04:28:27;;;;;;;18.17;8.90;;;;;;;;;;5075639;28;20190;-86
2022/10/03 04:31:02;;;;;;;17.23;8.23;;;;;;;;;;4999425;28;20254;-83
2022/10/03 04:33:33;;;;;;;15.00;8.67;;;;;;;;;;5011490;28;20714;-83
2022/10/03 04:36:21;;;;;;;17.90;8.93;;;;;;;;;;5013789;28;20339;-84
2022/10/03 04:38:52;;;;;;;15.10;8.90;;;;;;;;;;5018754;28;20231;-84
2022/10/03 04:41:27;;;;;;;17.03;9.10;;;;;;;;;;5011030;28;20221;-84
2022/10/03 04:44:00;;;;;;;17.57;9.17;;;;;;;;;;5016643;28;20239;-84
2022/10/03 04:46:30;;;;;;;19.53;9.47;;;;;;;;;;5012060;28;20593;-84
2022/10/03 04:49:03;;;;;;;18.10;8.77;;;;;;;;;;5018930;28;20283;-84
2022/10/03 04:51:39;;;;;;;16.40;8.93;;;;;;;;;;5004916;28;20197;-85
2022/10/03 04:54:14;;;;;;;14.40;8.83;;;;;;;;;;5019655;28;20224;-84
2022/10/03 04:56:49;;;;;;;17.07;8.70;;;;;;;;;;5025552;28;20745;-84
2022/10/03 04:59:39;;;;;;;16.43;8.83;;;;;;;;;;5018918;28;20239;-84
2022/10/03 05:02:11;;;;;;;20.67;9.30;;;;;;;;;;5022180;28;20227;-85
2022/10/03 05:04:44;;;;;;;17.37;8.80;;;;;;;;;;5022775;28;20212;-84
2022/10/03 05:07:15;;;;;;;15.73;8.60;;;;;;;;;;5036153;28;20227;-87
2022/10/03 05:09:46;;;;;;;18.07;8.37;;;;;;;;;;5079638;28;20226;-83
2022/10/03 05:12:16;;;;;;;18.50;9.60;;;;;;;;;;5073356;28;20338;-82
2022/10/03 05:14:52;;;;;;;15.50;8.53;;;;;;;;;;5070110;28;20920;-82
2022/10/03 05:17:22;;;;;;;15.13;8.73;;;;;;;;;;5082010;28;20293;-81
2022/10/03 05:20:10;;;;;;;13.27;8.13;;;;;;;;;;5071722;28;20218;-83
2022/10/03 05:22:45;;;;;;;16.33;8.50;;;;;;;;;;5066232;28;20272;-83
2022/10/03 05:25:17;;;;;;;13.30;8.20;;;;;;;;;;5084626;28;20296;-83
2022/10/03 05:27:50;;;;;;;14.90;8.50;;;;;;;;;;5088560;28;20281;-83
2022/10/03 05:30:20;;;;;;;14.97;7.90;;;;;;;;;;5078594;28;20198;-83
2022/10/03 05:32:48;;;;;;;14.93;7.97;;;;;;;;;;5072597;28;20199;-83
2022/10/03 05:35:23;;;;;;;14.43;8.27;;;;;;;;;;5087382;28;20222;-84
2022/10/03 05:38:01;;;;;;;17.40;8.03;;;;;;;;;;5074176;28;20187;-85
2022/10/03 05:40:29;;;;;;;13.73;8.03;;;;;;;;;;5074643;28;20709;-84
2022/10/03 05:43:03;;;;;;;11.77;7.80;;;;;;;;;;5073265;28;20250;-81
2022/10/03 05:45:33;;;;;;;15.03;8.27;;;;;;;;;;5076586;28;20233;-83
2022/10/03 05:48:11;;;;;;;16.87;9.00;;;;;;;;;;5072022;28;20242;-83
2022/10/03 05:50:56;;;;;;;13.60;8.60;;;;;;;;;;5079144;28;20237;-85
2022/10/03 05:53:54;;;;;;;13.50;8.77;;;;;;;;;;5071540;28;20191;-84
2022/10/03 05:56:28;;;;;;;19.23;8.97;;;;;;;;;;5009561;28;20240;-83
2022/10/03 05:59:17;;;;;;;18.93;9.03;;;;;;;;;;5010160;28;20224;-83
2022/10/03 06:01:58;;;;;;;11.93;8.60;;;;;;;;;;5009494;28;20308;-83
2022/10/03 06:04:42;;;;;;;16.20;8.07;;;;;;;;;;5014022;28;20208;-84
2022/10/03 06:07:19;;;;;;;14.60;8.23;;;;;;;;;;5029224;28;20278;-83
2022/10/03 06:10:04;;;;;;;16.90;8.43;;;;;;;;;;5030347;28;20279;-83
2022/10/03 06:12:34;;;;;;;16.90;8.43;;;;;;;;;;5016479;28;20319;-83
2022/10/03 06:15:20;;;;;;;13.60;8.17;;;;;;;;;;5011973;28;20248;-83
2022/10/03 06:17:56;;;;;;;14.27;8.10;;;;;;;;;;5014406;28;20700;-83
2022/10/03 06:20:45;;;;;;;13.37;7.97;;;;;;;;;;5014104;28;20304;-83
2022/10/03 06:23:31;;;;;;;15.67;8.40;;;;;;;;;;5013808;28;20288;-83
2022/10/03 06:26:21;;;;;;;14.83;8.33;;;;;;;;;;5013299;28;20284;-83
2022/10/03 06:29:18;;;;;;;17.17;7.77;;;;;;;;;;5017235;28;20232;-85
2022/10/03 06:32:15;;;;;;;11.40;7.63;;;;;;;;;;5053857;28;20756;-83
2022/10/03 06:35:03;;;;;;;11.30;7.30;;;;;;;;;;5053615;28;20694;-86
2022/10/03 06:38:00;;;;;;;10.73;7.17;;;;;;;;;;4974844;28;20206;-86
2022/10/03 06:40:42;;;;;;;11.93;7.70;;;;;;;;;;4967419;28;20793;-85
2022/10/03 06:43:30;;;;;;;14.00;7.50;;;;;;;;;;4957918;28;20203;-85
2022/10/03 06:46:08;;;;;;;11.73;7.47;;;;;;;;;;4898282;29;20927;-85
2022/10/03 06:48:43;;;;;;;10.30;7.33;;;;;;;;;;4898275;29;20349;-85
2022/10/03 06:51:18;;;;;;;11.70;7.57;;;;;;;;;;4897998;29;20276;-83
2022/10/03 06:54:00;;;;;;;13.40;7.33;;;;;;;;;;4898249;29;20244;-83
2022/10/03 06:56:51;;;;;;;9.70;7.00;;;;;;;;;;4882598;29;20201;-86
2022/10/03 06:59:31;;;;;;;12.10;7.23;;;;;;;;;;4888723;29;20697;-85
2022/10/03 07:02:13;;;;;;;11.93;7.07;;;;;;;;;;4898183;29;20320;-85
2022/10/03 07:04:51;;;;;;;11.57;7.40;;;;;;;;;;4897882;29;20293;-83
2022/10/03 07:07:42;;;;;;;9.60;7.27;;;;;;;;;;4934886;29;20255;-83
2022/10/03 07:10:19;;;;;;;11.90;6.80;;;;;;;;;;4934971;29;20231;-84
2022/10/03 07:13:05;;;;;;;10.87;6.97;;;;;;;;;;4935143;29;20238;-85
2022/10/03 07:15:50;;;;;;;12.90;7.10;;;;;;;;;;4988773;28;20701;-85
2022/10/03 07:18:41;;;;;;;9.17;6.07;;;;;;;;;;4992723;28;20198;-85
2022/10/03 07:21:30;;;;;;;9.13;6.27;;;;;;;;;;4998454;28;20686;-85
2022/10/03 07:24:15;;;;;;;8.83;6.47;;;;;;;;;;5027864;28;20283;-85
2022/10/03 07:27:08;;;;;;;12.07;6.63;;;;;;;;;;5030626;28;20288;-85
2022/10/03 07:30:02;;;;;;;10.23;5.77;;;;;;;;;;5032640;28;20192;-85
2022/10/03 07:32:44;;;;;;;9.60;5.63;;;;;;;;;;5009246;28;20743;-85
2022/10/03 07:41:18;;;;;;;10.23;6.43;;;;;;;;;;4985583;28;20232;-85
2022/10/03 07:43:54;;;;;;;11.60;5.60;;;;;;;;;;4987203;28;20820;-85
2022/10/03 07:46:49;;;;;;;11.17;5.10;;;;;;;;;;4973403;28;20206;-85
2022/10/03 07:49:39;;;;;;;9.03;5.17;;;;;;;;;;4940576;28;20203;-85
2022/10/03 07:52:30;;;;;;;7.70;5.17;;;;;;;;;;4973452;28;20202;-84
2022/10/03 07:55:09;;;;;;;8.82;5.00;;;;;;;;;;4959512;28;20683;-84
2022/10/03 07:57:51;;;;;;;7.65;5.20;;;;;;;;;;4973326;28;20243;-85
2022/10/03 08:00:25;;;;;;;8.00;4.80;;;;;;;;;;4987825;28;20762;-85
2022/10/03 08:03:05;;;;;;;8.00;5.17;;;;;;;;;;5032026;28;20243;-85
2022/10/03 08:05:38;;;;;;;8.30;4.50;;;;;;;;;;5032087;28;20224;-85
2022/10/03 08:08:19;;;;;;;7.28;4.50;;;;;;;;;;5031719;28;20707;-86
2022/10/03 08:11:07;;;;;;;9.70;4.80;;;;;;;;;;5011492;28;20236;-85
2022/10/03 08:13:41;;;;;;;6.77;4.57;;;;;;;;;;5051671;28;20232;-85
2022/10/03 08:16:19;;;;;;;8.67;4.20;;;;;;;;;;5053902;28;20283;-85
2022/10/03 08:19:04;;;;;;;6.82;5.30;;;;;;;;;;5053904;28;20250;-85
2022/10/03 08:21:37;;;;;;;8.95;6.70;;;;;;;;;;5040294;28;20277;-85
2022/10/03 08:24:12;;;;;;;11.70;8.90;;;;;;;;;;5053947;28;20619;-86
2022/10/03 08:26:45;;;;;;;10.82;7.93;;;;;;;;;;5053761;28;20239;-86
2022/10/03 08:29:46;;;;;;;13.57;8.27;;;;;;;;;;5053585;28;20285;-85
2022/10/03 08:32:28;;;;;;;11.27;8.68;;;;;;;;;;4992129;28;20204;-83
2022/10/03 08:35:10;;;;;;;9.15;7.65;;;;;;;;;;4992053;28;20584;-84
2022/10/03 08:37:53;;;;;;;11.25;8.20;;;;;;;;;;4987912;28;20233;-83
2022/10/03 08:40:41;;;;;;;12.38;7.25;;;;;;;;;;4992158;28;20252;-84
2022/10/03 08:43:26;;;;;;;9.05;7.20;;;;;;;;;;4896520;29;20292;-83
2022/10/03 08:46:01;;;;;;;12.40;8.50;;;;;;;;;;4895882;29;20240;-83
2022/10/03 08:48:43;;;;;;;12.38;9.07;;;;;;;;;;4896474;29;20289;-84
2022/10/03 08:51:42;;;;;;;14.45;10.52;;;;;;;;;;4896093;29;20240;-83
2022/10/03 08:54:18;;;;;;;14.65;12.10;;;;;;;;;;4896167;29;20573;-86
2022/10/03 08:57:12;;;;;;;14.13;12.00;;;;;;;;;;4896247;29;20343;-83
2022/10/03 08:59:58;;;;;;;16.10;12.23;;;;;;;;;;4874430;29;20677;-84
2022/10/03 09:02:37;;;;;;;16.85;12.27;;;;;;;;;;4911608;28;20230;-84
2022/10/03 09:05:28;;;;;;;18.45;11.98;;;;;;;;;;4971927;28;20241;-83
2022/10/03 09:08:07;;;;;;;15.82;12.35;;;;;;;;;;4901763;29;20613;-84
2022/10/03 09:11:04;;;;;;;17.63;12.57;;;;;;;;;;4914143;29;20287;-83
2022/10/03 09:13:56;;;;;;;15.63;12.18;;;;;;;;;;4914696;29;20736;-83
2022/10/03 09:16:41;;;;;;;18.05;12.63;;;;;;;;;;4914595;29;21039;-83
2022/10/03 09:19:22;;;;;;;16.33;12.43;;;;;;;;;;4922697;28;20263;-83
2022/10/03 09:22:08;;;;;;;17.30;13.20;;;;;;;;;;5009919;28;20263;-84
2022/10/03 09:24:50;;;;;;;18.00;12.52;;;;;;;;;;5011090;28;20208;-83
2022/10/03 09:27:35;;;;;;;19.23;13.13;;;;;;;;;;4997141;28;20230;-84
2022/10/03 09:30:24;;;;;;;21.65;12.90;;;;;;;;;;4990711;28;20268;-83
2022/10/03 09:33:14;;;;;;;22.65;13.27;;;;;;;;;;4993913;28;20637;-83
2022/10/03 09:35:59;;;;;;;18.65;13.20;;;;;;;;;;4990939;28;20233;-83
2022/10/03 09:38:41;;;;;;;20.90;13.07;;;;;;;;;;4991074;28;20716;-84
2022/10/03 09:41:28;;;;;;;16.90;11.90;;;;;;;;;;4975474;28;20314;-84
2022/10/03 09:44:07;;;;;;;15.40;10.87;;;;;;;;;;5007074;28;20575;-84
2022/10/03 09:47:21;;;;;;;14.35;10.00;;;;;;;;;;5052415;28;20231;-83
2022/10/03 09:49:48;;;;;;;12.75;9.27;;;;;;;;;;5051113;28;20201;-86
2022/10/03 09:52:33;;;;;;;13.02;9.63;;;;;;;;;;5052255;28;20274;-85
2022/10/03 09:55:10;;;;;;;10.98;8.57;;;;;;;;;;5052000;28;20667;-84
2022/10/03 09:57:45;;;;;;;10.07;8.15;;;;;;;;;;5073395;28;20681;-85
2022/10/03 10:00:24;;;;;;;11.13;8.38;;;;;;;;;;5092235;28;20290;-85
2022/10/03 10:03:18;;;;;;;10.52;8.32;;;;;;;;;;5092228;28;20232;-85
2022/10/03 10:06:04;;;;;;;9.00;7.30;;;;;;;;;;5092578;28;20638;-86
2022/10/03 10:08:51;;;;;;;9.07;7.57;;;;;;;;;;5092456;28;20250;-85
2022/10/03 10:11:22;;;;;;;8.90;7.85;;;;;;;;;;5091765;28;20316;-84
2022/10/03 10:14:04;;;;;;;8.77;7.68;;;;;;;;;;5078357;28;20286;-86
2022/10/03 10:16:41;;;;;;;9.02;6.07;;;;;;;;;;5059577;28;20657;-86
2022/10/03 10:19:29;;;;;;;10.20;6.28;;;;;;;;;;5071432;28;20195;-85
2022/10/03 10:22:15;;;;;;;9.20;6.20;;;;;;;;;;5066814;28;20309;-85
2022/10/03 10:25:06;;;;;;;6.38;5.70;;;;;;;;;;5072222;28;20239;-85
2022/10/03 10:27:54;;;;;;;6.47;5.78;;;;;;;;;;5071886;28;20286;-85
2022/10/03 10:30:23;;;;;;;7.93;5.20;;;;;;;;;;5071908;28;20242;-85
2022/10/03 10:33:11;;;;;;;7.18;5.78;;;;;;;;;;5072137;28;20264;-86
2022/10/03 10:35:51;;;;;;;6.85;5.70;;;;;;;;;;5071933;28;20191;-85
2022/10/03 10:38:28;;;;;;;9.20;5.60;;;;;;;;;;5071978;28;20278;-86
2022/10/03 10:41:19;;;;;;;9.02;6.18;;;;;;;;;;5072073;28;20210;-85
2022/10/03 10:44:07;;;;;;;7.82;6.55;;;;;;;;;;5075790;28;20231;-85
2022/10/03 10:49:52;;;;;;;7.80;6.10;;;;;;;;;;5089817;28;20593;-84
2022/10/03 10:52:32;;;;;;;7.72;6.25;;;;;;;;;;5047161;28;20261;-84
2022/10/03 10:55:26;;;;;;;7.90;6.20;;;;;;;;;;5047692;28;20297;-84
2022/10/03 10:58:11;;;;;;;8.05;7.00;;;;;;;;;;5047643;28;20625;-84
2022/10/03 11:00:52;;;;;;;8.45;6.03;;;;;;;;;;5047221;28;20709;-84
2022/10/03 11:03:47;;;;;;;8.32;6.60;;;;;;;;;;5047294;28;20195;-84
2022/10/03 11:06:32;;;;;;;9.00;6.53;;;;;;;;;;5047128;28;20203;-83
2022/10/03 11:09:25;;;;;;;8.75;6.35;;;;;;;;;;5027314;28;20317;-84
2022/10/03 11:12:12;;;;;;;8.20;5.78;;;;;;;;;;5027232;28;20200;-84
2022/10/03 11:15:04;;;;;;;7.00;5.65;;;;;;;;;;5007409;28;20292;-83
2022/10/03 11:17:55;;;;;;;8.23;6.00;;;;;;;;;;4929733;29;20242;-83
2022/10/03 11:20:37;;;;;;;8.07;6.15;;;;;;;;;;4873346;29;20241;-84
2022/10/03 11:23:24;;;;;;;8.23;5.80;;;;;;;;;;4873678;29;20292;-84
2022/10/03 11:26:10;;;;;;;7.60;5.43;;;;;;;;;;4873772;29;20252;-84
2022/10/03 11:28:56;;;;;;;6.65;5.30;;;;;;;;;;4897301;29;20318;-84
2022/10/03 11:31:41;;;;;;;7.13;5.38;;;;;;;;;;4948628;28;20231;-84
2022/10/03 11:34:32;;;;;;;6.68;5.32;;;;;;;;;;4949307;28;20283;-84
2022/10/03 11:37:04;;;;;;;7.57;5.00;;;;;;;;;;4948966;28;20238;-84
2022/10/03 11:39:36;;;;;;;6.97;4.53;;;;;;;;;;4948937;28;20259;-84
2022/10/03 11:42:11;;;;;;;6.55;4.53;;;;;;;;;;4949123;28;20678;-83
2022/10/03 11:44:42;;;;;;;5.40;4.80;;;;;;;;;;4935543;28;20290;-84
2022/10/03 11:47:21;;;;;;;6.55;5.35;;;;;;;;;;4929620;29;20291;-84
2022/10/03 11:50:22;;;;;;;10.10;5.45;;;;;;;;;;4929352;29;20287;-84
2022/10/03 11:52:57;;;;;;;6.47;5.07;;;;;;;;;;4891655;29;20264;-84
2022/10/03 11:55:30;;;;;;;7.13;4.68;;;;;;;;;;4948813;29;20222;-84
2022/10/03 11:58:04;;;;;;;6.15;4.80;;;;;;;;;;5001360;28;20202;-84
2022/10/03 12:00:34;;;;;;;6.15;4.65;;;;;;;;;;4994804;28;20220;-84
2022/10/03 12:03:12;;;;;;;6.43;4.80;;;;;;;;;;4993231;28;20731;-84
2022/10/03 12:05:45;;;;;;;6.22;4.45;;;;;;;;;;4993640;28;20193;-84
2022/10/03 12:11:08;;;;;;;6.53;3.80;;;;;;;;;;4993282;28;20216;-84
2022/10/03 12:13:41;;;;;;;6.10;3.95;;;;;;;;;;4993356;28;20264;-84
2022/10/03 12:16:17;;;;;;;6.95;4.05;;;;;;;;;;4993130;28;20229;-84
2022/10/03 12:18:52;;;;;;;5.93;4.53;;;;;;;;;;4993178;28;20288;-84
2022/10/03 12:21:22;;;;;;;7.85;4.50;;;;;;;;;;4993655;28;20633;-84
2022/10/03 12:24:04;;;;;;;7.85;4.38;;;;;;;;;;5026045;28;20727;-84
2022/10/03 12:26:41;;;;;;;6.68;4.25;;;;;;;;;;5052093;28;20693;-84
2022/10/03 12:29:11;;;;;;;4.97;4.05;;;;;;;;;;5054050;28;20717;-85
2022/10/03 12:31:41;;;;;;;4.72;4.10;;;;;;;;;;5054640;28;20287;-84
2022/10/03 12:34:19;;;;;;;7.15;4.30;;;;;;;;;;5054015;28;20278;-85
2022/10/03 12:36:52;;;;;;;6.25;4.30;;;;;;;;;;5054323;28;20246;-84
2022/10/03 12:39:25;;;;;;;5.57;4.45;;;;;;;;;;5054490;28;20196;-84
2022/10/03 12:41:57;;;;;;;6.32;4.38;;;;;;;;;;5053570;28;20225;-84
2022/10/03 12:44:35;;;;;;;5.68;4.45;;;;;;;;;;5053671;28;20227;-84
2022/10/03 12:47:09;;;;;;;5.75;3.90;;;;;;;;;;5054119;28;20238;-84
2022/10/03 12:49:44;;;;;;;5.20;3.42;;;;;;;;;;5054225;28;20254;-85
2022/10/03 12:52:17;;;;;;;5.65;3.58;;;;;;;;;;5054093;28;20203;-84
2022/10/03 12:54:48;;;;;;;5.13;4.00;;;;;;;;;;5054416;28;20242;-84
2022/10/03 12:57:32;;;;;;;5.30;3.83;;;;;;;;;;5054036;28;20242;-84
2022/10/03 13:00:05;;;;;;;5.03;3.72;;;;;;;;;;5053841;28;20733;-84
2022/10/03 13:02:36;;;;;;;5.47;3.60;;;;;;;;;;5054124;28;20762;-85
2022/10/03 13:05:18;;;;;;;4.50;3.85;;;;;;;;;;5053853;28;20232;-84
2022/10/03 13:07:51;;;;;;;4.30;3.53;;;;;;;;;;5054016;28;20255;-84
2022/10/03 13:10:24;;;;;;;4.63;3.30;;;;;;;;;;5052944;28;20200;-84
2022/10/03 13:12:54;;;;;;;4.38;3.63;;;;;;;;;;5052902;28;20195;-84
2022/10/03 13:15:43;;;;;;;5.25;3.90;;;;;;;;;;5053952;28;20254;-84
2022/10/03 13:18:27;;;;;;;4.10;3.42;;;;;;;;;;5053417;28;20199;-84
2022/10/03 13:20:59;;;;;;;4.95;3.30;;;;;;;;;;5053152;28;20750;-84
2022/10/03 13:23:32;;;;;;;7.53;3.75;;;;;;;;;;5053594;28;20210;-85
2022/10/03 13:26:06;;;;;;;4.78;3.67;;;;;;;;;;5053610;28;20199;-84
2022/10/03 13:28:36;;;;;;;5.05;3.33;;;;;;;;;;5053585;28;20602;-84
2022/10/03 13:31:05;;;;;;;6.60;3.80;;;;;;;;;;5053646;28;20630;-84
2022/10/03 13:33:35;;;;;;;5.10;3.30;;;;;;;;;;5053506;28;20286;-84
2022/10/03 13:36:08;;;;;;;5.93;3.40;;;;;;;;;;5053212;28;20275;-84
2022/10/03 13:38:45;;;;;;;5.13;3.10;;;;;;;;;;5052949;28;20633;-84
2022/10/03 13:41:18;;;;;;;6.15;3.47;;;;;;;;;;5052693;28;20637;-84
2022/10/03 13:43:48;;;;;;;4.32;2.85;;;;;;;;;;5052945;28;20239;-84
2022/10/03 13:46:18;;;;;;;4.50;2.63;;;;;;;;;;5053416;28;20212;-84
2022/10/03 13:48:47;;;;;;;5.10;2.55;;;;;;;;;;5053117;28;20235;-84
2022/10/03 13:51:21;;;;;;;5.80;3.10;;;;;;;;;;5053231;28;20282;-84
2022/10/03 13:53:59;;;;;;;4.63;2.83;;;;;;;;;;5052911;28;20287;-84
2022/10/03 13:56:35;;;;;;;4.72;2.70;;;;;;;;;;5052344;28;20212;-85
2022/10/03 13:59:10;;;;;;;4.95;2.97;;;;;;;;;;5053407;28;20286;-84
2022/10/03 14:01:52;;;;;;;4.80;2.60;;;;;;;;;;5052918;28;20637;-84
2022/10/03 14:04:37;;;;;;;4.38;3.05;;;;;;;;;;5052944;28;20665;-84
2022/10/03 14:07:11;;;;;;;4.80;3.08;;;;;;;;;;5039823;28;20270;-84
2022/10/03 14:09:45;;;;;;;3.80;2.85;;;;;;;;;;5052362;28;20227;-84
2022/10/03 14:12:18;;;;;;;3.47;2.40;;;;;;;;;;5068184;28;20237;-83
2022/10/03 14:14:53;;;;;;;4.85;2.78;;;;;;;;;;5073121;28;20226;-84
2022/10/03 14:17:24;;;;;;;2.78;2.58;;;;;;;;;;5072549;28;20607;-84
2022/10/03 14:19:58;;;;;;;6.03;2.92;;;;;;;;;;5072479;28;20234;-84
2022/10/03 14:22:43;;;;;;;3.95;2.40;;;;;;;;;;5072110;28;20630;-84
2022/10/03 14:25:17;;;;;;;5.00;2.70;;;;;;;;;;5072367;28;20207;-84
2022/10/03 14:27:48;;;;;;;5.75;2.38;;;;;;;;;;5052057;28;20281;-84
2022/10/03 14:30:16;;;;;;;3.72;2.85;;;;;;;;;;5067370;28;20726;-84
2022/10/03 14:33:09;;;;;;;3.13;2.70;;;;;;;;;;5072402;28;20234;-84
2022/10/03 14:35:39;;;;;;;3.67;2.45;;;;;;;;;;5053495;28;20729;-84
2022/10/03 14:38:14;;;;;;;3.05;2.53;;;;;;;;;;5072695;28;20290;-84
2022/10/03 14:40:45;;;;;;;4.07;2.67;;;;;;;;;;5072354;28;20274;-84
2022/10/03 14:43:17;;;;;;;3.75;2.58;;;;;;;;;;5071293;28;20234;-84
2022/10/03 14:45:45;;;;;;;3.53;2.22;;;;;;;;;;5060557;28;20238;-84
2022/10/03 14:48:15;;;;;;;4.07;2.28;;;;;;;;;;5052263;28;20277;-84
2022/10/03 14:50:42;;;;;;;4.35;2.10;;;;;;;;;;5052069;28;20235;-84
2022/10/03 14:53:16;;;;;;;5.00;2.78;;;;;;;;;;5052178;28;20208;-84
2022/10/03 14:55:47;;;;;;;3.78;2.40;;;;;;;;;;5052344;28;20237;-84
2022/10/03 14:58:18;;;;;;;2.70;2.50;;;;;;;;;;5052402;28;20274;-84
2022/10/03 15:00:46;;;;;;;2.85;2.30;;;;;;;;;;5052678;28;20226;-84
2022/10/03 15:03:24;;;;;;;5.05;2.60;;;;;;;;;;5052341;28;20238;-84
2022/10/03 15:06:03;;;;;;;4.40;2.60;;;;;;;;;;5052738;28;20226;-84
2022/10/03 15:08:32;;;;;;;4.32;2.67;;;;;;;;;;5071319;28;20342;-85
2022/10/03 15:11:01;;;;;;;2.30;1.85;;;;;;;;;;5071210;28;20294;-85
2022/10/03 15:13:29;;;;;;;4.55;2.33;;;;;;;;;;5071841;28;20678;-84
2022/10/03 15:15:56;;;;;;;3.40;2.28;;;;;;;;;;5071693;28;20219;-84
2022/10/03 15:18:25;;;;;;;3.72;2.17;;;;;;;;;;5071472;28;20282;-84
2022/10/03 15:20:53;;;;;;;3.17;2.55;;;;;;;;;;5052470;28;20232;-84
2022/10/03 15:23:22;;;;;;;3.33;2.40;;;;;;;;;;5051293;28;20689;-84
2022/10/03 15:25:52;;;;;;;4.35;2.58;;;;;;;;;;5051279;28;20612;-84
2022/10/03 15:28:23;;;;;;;4.82;2.72;;;;;;;;;;5051880;28;20202;-84
2022/10/03 15:30:51;;;;;;;4.20;2.22;;;;;;;;;;5041470;28;20221;-81
2022/10/03 15:33:22;;;;;;;4.30;2.80;;;;;;;;;;5058062;28;20231;-86
2022/10/03 15:35:52;;;;;;;3.13;2.30;;;;;;;;;;5054514;28;20209;-86
2022/10/03 15:38:26;;;;;;;3.35;2.30;;;;;;;;;;5055641;28;20234;-86
2022/10/03 15:40:55;;;;;;;4.35;2.60;;;;;;;;;;5055582;28;20690;-86
2022/10/03 15:43:33;;;;;;;4.50;2.70;;;;;;;;;;5055675;28;20200;-86
2022/10/03 15:46:02;;;;;;;4.82;2.50;;;;;;;;;;5050746;28;20227;-84
2022/10/03 15:48:30;;;;;;;3.15;2.50;;;;;;;;;;5052237;28;20266;-84
2022/10/03 15:50:58;;;;;;;5.10;2.72;;;;;;;;;;5051900;28;20331;-84
2022/10/03 15:53:26;;;;;;;4.38;2.70;;;;;;;;;;5041890;28;20537;-85
2022/10/03 15:55:56;;;;;;;4.25;2.70;;;;;;;;;;5052713;28;20202;-87
2022/10/03 15:58:25;;;;;;;4.03;2.75;;;;;;;;;;5049319;28;20286;-84
2022/10/03 16:00:57;;;;;;;2.85;2.58;;;;;;;;;;5054144;28;20204;-83